Time;durP1;ratioP1;P1;durP2;ratioP2;P2;SDS_P1;SDS_P2;PMS_P1;PMS_P2;Temp;Humidity;BMP_temperature;BMP_pressure;BME280_temperature;BME280_humidity;BME280_pressure;Samples;Min_cycle;Max_cycle;Signal;HPM_P1;HPM_P2
2022/07/26 00:00:25;;;;;;;23.25;11.48;;;;;;;;;;3362221;42;20640;-60
2022/07/26 00:02:52;;;;;;;19.38;11.80;;;;;;;;;;3360237;42;20099;-60
2022/07/26 00:05:18;;;;;;;19.48;10.60;;;;;;;;;;3359809;42;20166;-60
2022/07/26 00:07:44;;;;;;;20.47;10.57;;;;;;;;;;3361715;42;20140;-60
2022/07/26 00:10:10;;;;;;;19.50;10.50;;;;;;;;;;3361108;42;20084;-61
2022/07/26 00:12:36;;;;;;;18.80;9.70;;;;;;;;;;3353861;42;20151;-59
2022/07/26 00:15:04;;;;;;;17.80;8.65;;;;;;;;;;3357851;42;20135;-60
2022/07/26 00:17:30;;;;;;;18.40;9.07;;;;;;;;;;3354678;42;20092;-61
2022/07/26 00:19:56;;;;;;;19.73;9.80;;;;;;;;;;3345489;42;20101;-59
2022/07/26 00:22:34;;;;;;;19.55;10.90;;;;;;;;;;3353200;42;20100;-60
2022/07/26 00:25:02;;;;;;;18.58;10.57;;;;;;;;;;3354478;42;20088;-59
2022/07/26 00:27:28;;;;;;;19.70;11.35;;;;;;;;;;3353959;42;20498;-61
2022/07/26 00:29:54;;;;;;;20.83;11.53;;;;;;;;;;3351057;42;20555;-59
2022/07/26 00:32:19;;;;;;;19.48;11.48;;;;;;;;;;3353087;42;20107;-62
2022/07/26 00:34:45;;;;;;;21.52;11.57;;;;;;;;;;3356942;42;20115;-61
2022/07/26 00:37:11;;;;;;;18.23;10.73;;;;;;;;;;3353175;42;20096;-57
2022/07/26 00:39:37;;;;;;;19.57;11.00;;;;;;;;;;3353034;42;20300;-60
2022/07/26 00:42:03;;;;;;;18.83;10.10;;;;;;;;;;3353978;42;20111;-62
2022/07/26 00:44:37;;;;;;;19.58;10.25;;;;;;;;;;3353644;42;20092;-61
2022/07/26 00:47:03;;;;;;;18.35;10.90;;;;;;;;;;3354090;42;20163;-60
2022/07/26 00:49:29;;;;;;;17.07;8.70;;;;;;;;;;3350373;42;20123;-59
2022/07/26 00:51:55;;;;;;;16.15;8.93;;;;;;;;;;3354458;42;20527;-60
2022/07/26 00:54:21;;;;;;;19.00;10.27;;;;;;;;;;3348638;42;20710;-59
2022/07/26 00:56:47;;;;;;;18.50;9.87;;;;;;;;;;3355539;42;20088;-60
2022/07/26 00:59:13;;;;;;;17.65;9.88;;;;;;;;;;3344973;42;20143;-59
2022/07/26 01:01:38;;;;;;;19.02;9.82;;;;;;;;;;3352294;42;20104;-60
2022/07/26 01:04:04;;;;;;;20.30;10.38;;;;;;;;;;3349319;42;20096;-59
2022/07/26 01:06:30;;;;;;;23.47;11.80;;;;;;;;;;3344163;42;20091;-60
2022/07/26 01:08:56;;;;;;;19.92;8.52;;;;;;;;;;3357011;42;20144;-60
2022/07/26 01:11:22;;;;;;;15.25;8.07;;;;;;;;;;3348313;42;20555;-58
2022/07/26 01:13:48;;;;;;;17.20;9.17;;;;;;;;;;3353454;42;20118;-60
2022/07/26 01:16:15;;;;;;;17.52;8.88;;;;;;;;;;3343564;42;20100;-60
2022/07/26 01:18:41;;;;;;;19.13;9.68;;;;;;;;;;3351456;42;20897;-60
2022/07/26 01:21:08;;;;;;;19.40;9.10;;;;;;;;;;3353189;42;20563;-59
2022/07/26 01:23:34;;;;;;;21.48;11.20;;;;;;;;;;3348620;42;20108;-60
2022/07/26 01:26:00;;;;;;;19.37;9.80;;;;;;;;;;3337187;42;20119;-60
2022/07/26 01:28:26;;;;;;;20.45;11.88;;;;;;;;;;3348688;42;20597;-61
2022/07/26 01:30:51;;;;;;;19.17;9.18;;;;;;;;;;3356013;42;20514;-60
2022/07/26 01:33:18;;;;;;;22.25;10.13;;;;;;;;;;3352878;42;20140;-60
2022/07/26 01:35:43;;;;;;;18.37;9.50;;;;;;;;;;3356342;42;20572;-61
2022/07/26 01:38:10;;;;;;;18.67;8.77;;;;;;;;;;3343846;42;20097;-58
2022/07/26 01:40:36;;;;;;;20.50;11.90;;;;;;;;;;3348476;42;20103;-60
2022/07/26 01:43:01;;;;;;;21.98;12.88;;;;;;;;;;3354726;42;20128;-60
2022/07/26 01:45:28;;;;;;;22.30;12.88;;;;;;;;;;3352685;42;20080;-60
2022/07/26 01:47:54;;;;;;;21.37;12.27;;;;;;;;;;3351417;42;20076;-59
2022/07/26 01:50:20;;;;;;;24.90;10.82;;;;;;;;;;3352561;42;20100;-59
2022/07/26 01:52:46;;;;;;;18.27;9.52;;;;;;;;;;3350608;42;20081;-60
2022/07/26 01:55:12;;;;;;;15.63;8.02;;;;;;;;;;3352461;42;20110;-59
2022/07/26 01:57:38;;;;;;;19.07;9.50;;;;;;;;;;3352486;42;20147;-60
2022/07/26 02:00:06;;;;;;;18.70;9.00;;;;;;;;;;3356876;42;20167;-60
2022/07/26 02:02:32;;;;;;;18.52;10.20;;;;;;;;;;3354065;42;20102;-59
2022/07/26 02:04:57;;;;;;;20.45;9.85;;;;;;;;;;3353512;42;20092;-59
2022/07/26 02:07:28;;;;;;;20.47;9.87;;;;;;;;;;3352905;42;20152;-56
2022/07/26 02:09:54;;;;;;;16.03;9.20;;;;;;;;;;3357700;42;20355;-59
2022/07/26 02:12:19;;;;;;;21.13;10.60;;;;;;;;;;3353598;42;20096;-58
2022/07/26 02:14:45;;;;;;;20.75;11.18;;;;;;;;;;3351763;42;20145;-59
2022/07/26 02:17:11;;;;;;;21.48;11.07;;;;;;;;;;3356408;42;20080;-58
2022/07/26 02:19:38;;;;;;;21.13;11.30;;;;;;;;;;3354411;42;20135;-60
2022/07/26 02:22:04;;;;;;;20.08;11.52;;;;;;;;;;3352153;42;20101;-60
2022/07/26 02:24:30;;;;;;;25.60;11.77;;;;;;;;;;3354996;42;20099;-60
2022/07/26 02:26:56;;;;;;;20.77;11.85;;;;;;;;;;3353612;42;20096;-59
2022/07/26 02:29:22;;;;;;;20.53;11.97;;;;;;;;;;3355559;42;20158;-60
2022/07/26 02:31:48;;;;;;;20.30;11.70;;;;;;;;;;3354420;42;20618;-61
2022/07/26 02:34:14;;;;;;;23.60;12.50;;;;;;;;;;3353650;42;20090;-60
2022/07/26 02:36:40;;;;;;;20.63;11.88;;;;;;;;;;3352909;42;20559;-60
2022/07/26 02:39:06;;;;;;;21.47;11.33;;;;;;;;;;3358623;42;20551;-60
2022/07/26 02:41:32;;;;;;;21.02;12.85;;;;;;;;;;3349935;42;20634;-60
2022/07/26 02:43:58;;;;;;;20.90;12.68;;;;;;;;;;3354492;42;20147;-59
2022/07/26 02:46:24;;;;;;;23.15;12.85;;;;;;;;;;3358320;42;20144;-61
2022/07/26 02:48:50;;;;;;;21.63;12.60;;;;;;;;;;3349156;42;20096;-60
2022/07/26 02:51:16;;;;;;;22.05;12.93;;;;;;;;;;3353010;42;20095;-60
2022/07/26 02:53:42;;;;;;;20.52;11.93;;;;;;;;;;3352217;42;20148;-60
2022/07/26 02:56:08;;;;;;;21.90;13.20;;;;;;;;;;3356608;42;20204;-60
2022/07/26 02:58:33;;;;;;;19.60;11.77;;;;;;;;;;3352772;42;20096;-60
2022/07/26 03:00:59;;;;;;;21.52;12.23;;;;;;;;;;3353141;42;20521;-60
2022/07/26 03:03:25;;;;;;;21.85;12.40;;;;;;;;;;3349528;42;20570;-58
2022/07/26 03:05:51;;;;;;;18.73;11.43;;;;;;;;;;3355076;42;20554;-59
2022/07/26 03:08:17;;;;;;;22.87;12.27;;;;;;;;;;3350650;42;20166;-59
2022/07/26 03:10:43;;;;;;;23.27;12.63;;;;;;;;;;3353170;42;20104;-61
2022/07/26 03:13:10;;;;;;;21.25;11.98;;;;;;;;;;3358245;42;20089;-60
2022/07/26 03:15:36;;;;;;;21.98;11.68;;;;;;;;;;3349754;42;20118;-59
2022/07/26 03:18:02;;;;;;;19.77;11.47;;;;;;;;;;3352506;42;20168;-60
2022/07/26 03:20:28;;;;;;;19.55;12.45;;;;;;;;;;3352617;42;20531;-59
2022/07/26 03:22:54;;;;;;;18.02;11.32;;;;;;;;;;3352250;42;20100;-60
2022/07/26 03:25:20;;;;;;;19.83;11.50;;;;;;;;;;3353033;42;20154;-59
2022/07/26 03:27:46;;;;;;;20.93;11.07;;;;;;;;;;3355002;42;20092;-59
2022/07/26 03:30:12;;;;;;;19.10;11.35;;;;;;;;;;3353429;42;20136;-59
2022/07/26 03:32:38;;;;;;;20.67;10.93;;;;;;;;;;3352542;42;20538;-60
2022/07/26 03:35:05;;;;;;;20.63;11.68;;;;;;;;;;3355028;42;20089;-60
2022/07/26 03:37:31;;;;;;;19.97;11.70;;;;;;;;;;3354366;42;20148;-62
2022/07/26 03:39:57;;;;;;;18.83;11.73;;;;;;;;;;3343020;42;20092;-60
2022/07/26 03:42:23;;;;;;;37.20;12.93;;;;;;;;;;3357715;42;20087;-60
2022/07/26 03:44:49;;;;;;;18.93;11.30;;;;;;;;;;3349342;42;20101;-60
2022/07/26 03:47:15;;;;;;;21.50;10.90;;;;;;;;;;3356983;42;20147;-60
2022/07/26 03:49:41;;;;;;;21.90;10.93;;;;;;;;;;3345166;42;20140;-60
2022/07/26 03:52:09;;;;;;;19.05;10.57;;;;;;;;;;3352487;42;20103;-60
2022/07/26 03:54:35;;;;;;;18.03;10.17;;;;;;;;;;3356298;42;20151;-60
2022/07/26 03:57:01;;;;;;;16.95;10.43;;;;;;;;;;3343426;42;20162;-59
2022/07/26 03:59:27;;;;;;;16.00;9.82;;;;;;;;;;3351959;42;20092;-59
2022/07/26 04:01:53;;;;;;;18.92;9.43;;;;;;;;;;3355591;42;20080;-64
2022/07/26 04:04:19;;;;;;;20.10;10.00;;;;;;;;;;3352897;42;20096;-57
2022/07/26 04:06:46;;;;;;;16.88;9.80;;;;;;;;;;3351706;42;20114;-59
2022/07/26 04:09:12;;;;;;;18.80;9.90;;;;;;;;;;3345631;42;20152;-59
2022/07/26 04:11:39;;;;;;;16.33;9.55;;;;;;;;;;3351380;42;20096;-59
2022/07/26 04:14:05;;;;;;;17.67;9.43;;;;;;;;;;3353081;42;20084;-62
2022/07/26 04:16:30;;;;;;;16.20;9.23;;;;;;;;;;3356858;42;20549;-60
2022/07/26 04:18:57;;;;;;;13.98;8.90;;;;;;;;;;3343644;42;20161;-60
2022/07/26 04:21:23;;;;;;;18.45;8.55;;;;;;;;;;3345656;42;20167;-59
2022/07/26 04:23:49;;;;;;;14.77;7.78;;;;;;;;;;3352569;42;20092;-61
2022/07/26 04:26:15;;;;;;;15.80;7.67;;;;;;;;;;3350433;42;20164;-60
2022/07/26 04:28:41;;;;;;;11.90;7.18;;;;;;;;;;3351456;42;20096;-60
2022/07/26 04:31:07;;;;;;;14.27;9.45;;;;;;;;;;3357759;42;20097;-59
2022/07/26 04:33:33;;;;;;;12.30;7.07;;;;;;;;;;3354634;42;20104;-60
2022/07/26 04:35:59;;;;;;;14.57;7.70;;;;;;;;;;3355124;42;20080;-58
2022/07/26 04:38:25;;;;;;;12.60;6.70;;;;;;;;;;3352061;42;20092;-59
2022/07/26 04:40:51;;;;;;;11.98;6.60;;;;;;;;;;3342634;42;20096;-59
2022/07/26 04:43:17;;;;;;;12.25;6.40;;;;;;;;;;3358074;42;20136;-59
2022/07/26 04:45:46;;;;;;;12.15;6.35;;;;;;;;;;3353438;42;20151;-60
2022/07/26 04:48:15;;;;;;;10.33;6.07;;;;;;;;;;3344468;42;20089;-60
2022/07/26 04:50:41;;;;;;;13.93;6.40;;;;;;;;;;3346687;42;20139;-59
2022/07/26 04:53:09;;;;;;;12.13;6.40;;;;;;;;;;3357956;42;20088;-59
2022/07/26 04:55:36;;;;;;;10.80;6.20;;;;;;;;;;3345192;42;20084;-58
2022/07/26 04:58:02;;;;;;;11.30;6.70;;;;;;;;;;3357910;42;20674;-60
2022/07/26 05:00:28;;;;;;;14.80;6.87;;;;;;;;;;3353063;42;20111;-58
2022/07/26 05:02:56;;;;;;;13.05;6.53;;;;;;;;;;3357929;42;20139;-62
2022/07/26 05:05:22;;;;;;;12.65;6.70;;;;;;;;;;3344591;42;20096;-60
2022/07/26 05:07:53;;;;;;;10.85;6.70;;;;;;;;;;3354025;42;20104;-59
2022/07/26 05:10:19;;;;;;;13.70;6.77;;;;;;;;;;3356933;42;20547;-60
2022/07/26 05:12:45;;;;;;;10.57;5.57;;;;;;;;;;3349202;42;20516;-58
2022/07/26 05:15:12;;;;;;;15.93;7.28;;;;;;;;;;3352514;42;20099;-60
2022/07/26 05:17:40;;;;;;;16.42;7.38;;;;;;;;;;3354654;42;20096;-59
2022/07/26 05:20:07;;;;;;;12.98;8.23;;;;;;;;;;3358438;42;20092;-59
2022/07/26 05:22:35;;;;;;;13.80;8.30;;;;;;;;;;3356413;42;20140;-58
2022/07/26 05:25:01;;;;;;;15.32;10.43;;;;;;;;;;3352732;42;20088;-60
2022/07/26 05:27:27;;;;;;;22.80;13.30;;;;;;;;;;3344964;42;20112;-59
2022/07/26 05:29:54;;;;;;;19.17;11.63;;;;;;;;;;3353001;42;20135;-60
2022/07/26 05:32:21;;;;;;;15.52;11.07;;;;;;;;;;3355043;42;20096;-58
2022/07/26 05:34:47;;;;;;;16.43;10.50;;;;;;;;;;3354884;42;20156;-60
2022/07/26 05:37:13;;;;;;;16.05;10.65;;;;;;;;;;3356620;42;20222;-59
2022/07/26 05:39:39;;;;;;;17.08;10.90;;;;;;;;;;3354625;42;20099;-59
2022/07/26 05:42:05;;;;;;;16.27;10.75;;;;;;;;;;3351628;42;20096;-60
2022/07/26 05:44:31;;;;;;;15.87;11.17;;;;;;;;;;3355711;42;20132;-59
2022/07/26 05:46:57;;;;;;;17.55;11.20;;;;;;;;;;3356000;42;20138;-58
2022/07/26 05:49:24;;;;;;;20.10;11.48;;;;;;;;;;3357578;42;21064;-58
2022/07/26 05:51:51;;;;;;;19.38;12.40;;;;;;;;;;3351338;42;20093;-59
2022/07/26 05:54:17;;;;;;;23.50;12.38;;;;;;;;;;3357500;42;20123;-58
2022/07/26 05:56:43;;;;;;;19.20;11.77;;;;;;;;;;3352645;42;20167;-57
2022/07/26 05:59:09;;;;;;;20.23;13.13;;;;;;;;;;3356694;42;20139;-61
2022/07/26 06:01:35;;;;;;;23.13;14.68;;;;;;;;;;3358460;42;20104;-65
2022/07/26 06:04:01;;;;;;;25.52;14.35;;;;;;;;;;3345281;42;20115;-64
2022/07/26 06:06:27;;;;;;;24.60;15.30;;;;;;;;;;3356195;42;20088;-65
2022/07/26 06:08:54;;;;;;;27.58;15.60;;;;;;;;;;3364238;42;20088;-65
2022/07/26 06:11:20;;;;;;;30.25;15.50;;;;;;;;;;3345215;42;20097;-63
2022/07/26 06:13:46;;;;;;;32.33;17.52;;;;;;;;;;3356554;42;20108;-62
2022/07/26 06:16:12;;;;;;;32.60;17.53;;;;;;;;;;3349414;42;20099;-63
2022/07/26 06:18:38;;;;;;;29.67;17.17;;;;;;;;;;3346628;42;20091;-63
2022/07/26 06:21:04;;;;;;;24.67;14.20;;;;;;;;;;3346590;42;20092;-71
2022/07/26 06:23:30;;;;;;;28.65;16.50;;;;;;;;;;3354991;42;20099;-63
2022/07/26 06:25:56;;;;;;;32.80;17.03;;;;;;;;;;3344770;42;20104;-63
2022/07/26 06:28:23;;;;;;;29.30;15.80;;;;;;;;;;3353542;42;20335;-63
2022/07/26 06:30:49;;;;;;;35.95;20.00;;;;;;;;;;3356918;42;20589;-62
2022/07/26 06:33:15;;;;;;;43.92;21.85;;;;;;;;;;3355272;42;20876;-64
2022/07/26 06:35:41;;;;;;;41.35;22.45;;;;;;;;;;3353871;42;20080;-63
2022/07/26 06:38:07;;;;;;;41.80;21.73;;;;;;;;;;3344417;42;20102;-65
2022/07/26 06:40:33;;;;;;;39.50;20.30;;;;;;;;;;3350378;42;20106;-63
2022/07/26 06:42:59;;;;;;;36.92;20.50;;;;;;;;;;3341931;42;20566;-62
2022/07/26 06:45:26;;;;;;;31.85;18.80;;;;;;;;;;3347207;42;20140;-65
2022/07/26 06:47:52;;;;;;;23.95;14.80;;;;;;;;;;3343768;42;20093;-65
2022/07/26 06:50:18;;;;;;;21.73;13.37;;;;;;;;;;3355366;42;20099;-64
2022/07/26 06:52:44;;;;;;;26.40;15.05;;;;;;;;;;3353872;42;20084;-64
2022/07/26 06:55:10;;;;;;;26.10;15.68;;;;;;;;;;3346129;42;20211;-64
2022/07/26 06:57:36;;;;;;;30.05;17.13;;;;;;;;;;3346160;42;20101;-66
2022/07/26 07:00:03;;;;;;;27.13;17.63;;;;;;;;;;3341695;42;20115;-64
2022/07/26 07:02:29;;;;;;;27.30;16.75;;;;;;;;;;3358519;42;20607;-64
2022/07/26 07:04:55;;;;;;;26.30;17.23;;;;;;;;;;3354005;42;20088;-66
2022/07/26 07:07:21;;;;;;;33.80;18.90;;;;;;;;;;3346382;42;20144;-63
2022/07/26 07:09:47;;;;;;;38.03;20.27;;;;;;;;;;3357230;42;20557;-66
2022/07/26 07:12:14;;;;;;;34.88;19.17;;;;;;;;;;3349968;42;20135;-62
2022/07/26 07:14:40;;;;;;;34.03;17.50;;;;;;;;;;3353353;42;20097;-65
2022/07/26 07:17:06;;;;;;;26.15;14.98;;;;;;;;;;3343850;42;20089;-61
2022/07/26 07:19:34;;;;;;;23.60;12.23;;;;;;;;;;3349591;42;20101;-63
2022/07/26 07:22:00;;;;;;;18.87;11.00;;;;;;;;;;3353976;42;20088;-66
2022/07/26 07:24:26;;;;;;;20.33;11.20;;;;;;;;;;3350498;42;20144;-62
2022/07/26 07:26:52;;;;;;;22.23;10.98;;;;;;;;;;3352090;42;20104;-66
2022/07/26 07:29:19;;;;;;;16.20;9.73;;;;;;;;;;3354395;42;20151;-63
2022/07/26 07:31:48;;;;;;;19.40;10.13;;;;;;;;;;3349903;42;20088;-66
2022/07/26 07:34:14;;;;;;;17.30;9.40;;;;;;;;;;3348122;42;20089;-63
2022/07/26 07:36:40;;;;;;;14.70;9.20;;;;;;;;;;3341900;42;20104;-64
2022/07/26 07:39:06;;;;;;;16.02;9.20;;;;;;;;;;3354001;42;20147;-62
2022/07/26 07:41:33;;;;;;;16.25;9.95;;;;;;;;;;3344773;42;20267;-63
2022/07/26 07:43:59;;;;;;;17.27;10.60;;;;;;;;;;3348876;42;20107;-61
2022/07/26 07:46:26;;;;;;;17.05;9.70;;;;;;;;;;3358303;42;20166;-64
2022/07/26 07:48:52;;;;;;;17.23;9.68;;;;;;;;;;3353525;42;20151;-63
2022/07/26 07:51:18;;;;;;;16.42;9.95;;;;;;;;;;3352837;42;20092;-63
2022/07/26 07:53:44;;;;;;;21.70;11.00;;;;;;;;;;3355781;42;20084;-64
2022/07/26 07:56:10;;;;;;;15.53;9.93;;;;;;;;;;3357143;42;20096;-64
2022/07/26 07:58:36;;;;;;;15.63;10.02;;;;;;;;;;3352218;42;20155;-63
2022/07/26 08:01:02;;;;;;;18.42;11.15;;;;;;;;;;3351663;42;20093;-63
2022/07/26 08:03:28;;;;;;;18.25;10.50;;;;;;;;;;3355302;42;20490;-63
2022/07/26 08:05:54;;;;;;;16.70;10.10;;;;;;;;;;3353213;42;20076;-63
2022/07/26 08:08:20;;;;;;;17.52;10.18;;;;;;;;;;3354381;42;20104;-63
2022/07/26 08:10:46;;;;;;;18.05;10.52;;;;;;;;;;3349412;42;20575;-65
2022/07/26 08:13:12;;;;;;;18.23;10.37;;;;;;;;;;3352918;42;20084;-65
2022/07/26 08:15:38;;;;;;;18.00;10.55;;;;;;;;;;3346861;42;20649;-64
2022/07/26 08:18:04;;;;;;;19.83;10.35;;;;;;;;;;3353824;42;20718;-65
2022/07/26 08:20:30;;;;;;;18.40;9.70;;;;;;;;;;3357336;42;20088;-63
2022/07/26 08:22:56;;;;;;;19.70;10.53;;;;;;;;;;3353629;42;20111;-64
2022/07/26 08:25:22;;;;;;;17.42;10.52;;;;;;;;;;3356557;42;20143;-67
2022/07/26 08:27:48;;;;;;;19.00;10.50;;;;;;;;;;3356569;42;20158;-63
2022/07/26 08:30:14;;;;;;;17.58;10.10;;;;;;;;;;3353744;42;20188;-66
2022/07/26 08:32:40;;;;;;;15.23;8.93;;;;;;;;;;3352505;42;20096;-64
2022/07/26 08:35:07;;;;;;;14.87;9.10;;;;;;;;;;3353412;42;20092;-64
2022/07/26 08:37:33;;;;;;;16.95;8.30;;;;;;;;;;3354338;42;20088;-64
2022/07/26 08:39:59;;;;;;;15.90;8.65;;;;;;;;;;3350519;42;21137;-64
2022/07/26 08:42:25;;;;;;;14.20;8.10;;;;;;;;;;3354846;42;20096;-63
2022/07/26 08:44:51;;;;;;;15.43;8.37;;;;;;;;;;3348697;42;20562;-62
2022/07/26 08:47:18;;;;;;;14.90;8.40;;;;;;;;;;3351153;42;20170;-64
2022/07/26 08:49:44;;;;;;;14.75;7.70;;;;;;;;;;3351681;42;20099;-65
2022/07/26 08:52:11;;;;;;;14.48;8.60;;;;;;;;;;3343810;42;20088;-64
2022/07/26 08:54:44;;;;;;;15.38;8.50;;;;;;;;;;3348250;42;20080;-65
2022/07/26 08:57:10;;;;;;;13.70;7.80;;;;;;;;;;3355804;42;20151;-64
2022/07/26 08:59:36;;;;;;;14.68;7.82;;;;;;;;;;3356258;42;20095;-63
2022/07/26 09:02:10;;;;;;;13.82;7.22;;;;;;;;;;3348259;42;20143;-62
2022/07/26 09:04:38;;;;;;;14.80;8.18;;;;;;;;;;3350368;42;20572;-62
2022/07/26 09:07:09;;;;;;;12.82;8.10;;;;;;;;;;3344462;42;20513;-63
2022/07/26 09:09:37;;;;;;;15.43;8.33;;;;;;;;;;3357240;42;20099;-62
2022/07/26 09:12:17;;;;;;;23.13;14.80;;;;;;;;;;3356890;42;20167;-64
2022/07/26 09:14:45;;;;;;;24.27;14.75;;;;;;;;;;3341260;42;20108;-67
2022/07/26 09:17:11;;;;;;;25.52;17.20;;;;;;;;;;3348585;42;20092;-65
2022/07/26 09:19:37;;;;;;;22.40;14.35;;;;;;;;;;3345677;42;20088;-62
2022/07/26 09:22:08;;;;;;;9.07;4.97;;;;;;;;;;3345110;42;20144;-62
2022/07/26 09:24:42;;;;;;;8.50;5.07;;;;;;;;;;3352141;42;20603;-62
2022/07/26 09:27:10;;;;;;;11.88;5.05;;;;;;;;;;3351940;42;20169;-62
2022/07/26 09:29:44;;;;;;;8.80;4.85;;;;;;;;;;3345981;42;20092;-65
2022/07/26 09:32:24;;;;;;;9.05;5.10;;;;;;;;;;3352577;42;20085;-61
2022/07/26 09:34:52;;;;;;;8.50;4.53;;;;;;;;;;3351355;42;20104;-64
2022/07/26 09:37:31;;;;;;;11.88;5.13;;;;;;;;;;3352769;42;20158;-63
2022/07/26 09:39:58;;;;;;;8.10;4.50;;;;;;;;;;3342781;42;20159;-62
2022/07/26 09:42:25;;;;;;;11.32;4.90;;;;;;;;;;3352160;42;20103;-62
2022/07/26 09:44:51;;;;;;;9.77;4.63;;;;;;;;;;3355672;42;20106;-63
2022/07/26 09:47:17;;;;;;;7.30;4.23;;;;;;;;;;3356392;42;20581;-64
2022/07/26 09:49:43;;;;;;;8.70;5.00;;;;;;;;;;3343158;42;20563;-62
2022/07/26 09:52:14;;;;;;;11.15;5.40;;;;;;;;;;3350410;42;20111;-63
2022/07/26 09:54:40;;;;;;;11.05;5.60;;;;;;;;;;3351643;42;20112;-64
2022/07/26 09:57:06;;;;;;;8.20;4.53;;;;;;;;;;3352565;42;20084;-65
2022/07/26 09:59:32;;;;;;;12.30;6.57;;;;;;;;;;3345196;42;20125;-64
2022/07/26 10:01:58;;;;;;;13.25;8.05;;;;;;;;;;3348137;42;20089;-61
2022/07/26 10:04:24;;;;;;;13.50;8.20;;;;;;;;;;3336395;42;20169;-63
2022/07/26 10:06:50;;;;;;;13.88;8.60;;;;;;;;;;3343256;42;20106;-63
2022/07/26 10:09:17;;;;;;;16.80;9.00;;;;;;;;;;3351809;42;20097;-63
2022/07/26 10:11:57;;;;;;;13.90;8.02;;;;;;;;;;3355052;42;20590;-62
2022/07/26 10:14:32;;;;;;;11.80;7.55;;;;;;;;;;3346080;42;20155;-63
2022/07/26 10:17:01;;;;;;;13.25;7.55;;;;;;;;;;3348842;42;20103;-65
2022/07/26 10:19:38;;;;;;;13.30;7.65;;;;;;;;;;3345743;42;20096;-63
2022/07/26 10:22:43;;;;;;;16.50;8.27;;;;;;;;;;3346222;42;20080;-63
2022/07/26 10:25:18;;;;;;;14.65;8.00;;;;;;;;;;3314789;43;20109;-62
2022/07/26 10:27:46;;;;;;;10.05;6.68;;;;;;;;;;3315221;43;20170;-64
2022/07/26 10:30:18;;;;;;;11.43;6.80;;;;;;;;;;3333463;42;20563;-63
2022/07/26 10:32:50;;;;;;;11.88;6.30;;;;;;;;;;3354543;42;20186;-62
2022/07/26 10:35:40;;;;;;;11.17;6.50;;;;;;;;;;3353058;42;20154;-64
2022/07/26 10:38:09;;;;;;;13.07;7.40;;;;;;;;;;3351553;42;20183;-64
2022/07/26 10:40:36;;;;;;;10.85;6.93;;;;;;;;;;3353651;42;20170;-66
2022/07/26 10:43:10;;;;;;;11.80;6.22;;;;;;;;;;3351877;42;20095;-61
2022/07/26 10:45:36;;;;;;;8.65;5.40;;;;;;;;;;3347136;42;20159;-61
2022/07/26 10:48:13;;;;;;;9.70;5.60;;;;;;;;;;3341154;42;20100;-61
2022/07/26 10:50:47;;;;;;;9.02;5.70;;;;;;;;;;3340934;42;20132;-61
2022/07/26 10:53:24;;;;;;;8.45;5.70;;;;;;;;;;3344755;42;20081;-60
2022/07/26 10:55:54;;;;;;;11.27;6.00;;;;;;;;;;3352722;42;20076;-62
2022/07/26 10:58:21;;;;;;;9.82;5.43;;;;;;;;;;3341939;42;20095;-60
2022/07/26 11:00:57;;;;;;;9.23;5.80;;;;;;;;;;3341403;42;20114;-61
2022/07/26 11:03:23;;;;;;;9.23;5.15;;;;;;;;;;3341783;42;20100;-61
2022/07/26 11:05:50;;;;;;;8.70;5.32;;;;;;;;;;3345952;42;20088;-61
2022/07/26 11:08:16;;;;;;;8.43;4.97;;;;;;;;;;3356881;42;20100;-61
2022/07/26 11:10:43;;;;;;;9.10;5.90;;;;;;;;;;3353502;42;20475;-61
2022/07/26 11:13:16;;;;;;;11.15;5.85;;;;;;;;;;3345449;42;20096;-63
2022/07/26 11:15:46;;;;;;;9.23;5.80;;;;;;;;;;3353630;42;20084;-62
2022/07/26 11:18:21;;;;;;;10.27;5.82;;;;;;;;;;3347389;42;20096;-59
2022/07/26 11:20:50;;;;;;;9.43;6.03;;;;;;;;;;3345297;42;20506;-64
2022/07/26 11:23:32;;;;;;;11.17;6.10;;;;;;;;;;3351340;42;20507;-61
2022/07/26 11:25:59;;;;;;;10.90;6.55;;;;;;;;;;3347359;42;20084;-60
2022/07/26 11:28:25;;;;;;;9.95;5.88;;;;;;;;;;3349484;42;20095;-61
2022/07/26 11:30:58;;;;;;;9.32;6.00;;;;;;;;;;3355155;42;20128;-63
2022/07/26 11:33:37;;;;;;;11.68;6.90;;;;;;;;;;3354800;42;20155;-62
2022/07/26 11:36:03;;;;;;;13.50;7.70;;;;;;;;;;3355306;42;20152;-62
2022/07/26 11:38:52;;;;;;;11.45;7.28;;;;;;;;;;3354324;42;20140;-62
2022/07/26 11:41:19;;;;;;;13.35;8.00;;;;;;;;;;3358113;42;20131;-63
2022/07/26 11:43:45;;;;;;;12.60;8.27;;;;;;;;;;3356853;42;20555;-69
2022/07/26 11:46:11;;;;;;;12.40;8.00;;;;;;;;;;3352201;42;20096;-65
2022/07/26 11:48:37;;;;;;;13.02;8.35;;;;;;;;;;3349558;42;20674;-64
2022/07/26 11:51:10;;;;;;;11.60;8.02;;;;;;;;;;3349523;42;20093;-65
2022/07/26 11:53:36;;;;;;;11.65;7.65;;;;;;;;;;3353974;42;20182;-65
2022/07/26 11:56:30;;;;;;;12.95;7.53;;;;;;;;;;3342350;42;20081;-64
2022/07/26 11:58:56;;;;;;;12.83;7.20;;;;;;;;;;3352127;42;20080;-64
2022/07/26 12:01:23;;;;;;;12.15;7.35;;;;;;;;;;3349123;42;20100;-71
2022/07/26 12:03:50;;;;;;;14.23;7.18;;;;;;;;;;3347029;42;20151;-62
2022/07/26 12:06:19;;;;;;;13.85;8.25;;;;;;;;;;3356567;42;20617;-62
2022/07/26 12:08:47;;;;;;;13.10;8.93;;;;;;;;;;3344361;42;20108;-61
2022/07/26 12:11:14;;;;;;;14.30;8.30;;;;;;;;;;3351931;42;20577;-62
2022/07/26 12:14:00;;;;;;;14.38;8.90;;;;;;;;;;3350327;42;20088;-64
2022/07/26 12:16:39;;;;;;;15.80;9.43;;;;;;;;;;3353890;42;20104;-62
2022/07/26 12:19:05;;;;;;;15.82;10.27;;;;;;;;;;3355799;42;20220;-64
2022/07/26 12:21:45;;;;;;;15.48;10.55;;;;;;;;;;3344779;42;20107;-64
2022/07/26 12:24:13;;;;;;;21.40;10.20;;;;;;;;;;3351637;42;20559;-62
2022/07/26 12:26:39;;;;;;;17.98;10.82;;;;;;;;;;3345372;42;20596;-63
2022/07/26 12:29:24;;;;;;;16.98;10.80;;;;;;;;;;3343579;42;20208;-64
2022/07/26 12:32:04;;;;;;;16.50;11.15;;;;;;;;;;3353609;42;20162;-62
2022/07/26 12:34:30;;;;;;;19.45;11.85;;;;;;;;;;3345547;42;20180;-63
2022/07/26 12:37:14;;;;;;;17.30;11.07;;;;;;;;;;3342434;42;20189;-64
2022/07/26 12:39:40;;;;;;;15.63;11.30;;;;;;;;;;3343829;42;20139;-64
2022/07/26 12:42:23;;;;;;;15.88;11.38;;;;;;;;;;3344524;42;20107;-63
2022/07/26 12:44:50;;;;;;;15.85;11.20;;;;;;;;;;3348509;42;20563;-65
2022/07/26 12:47:16;;;;;;;16.38;11.07;;;;;;;;;;3339537;42;20506;-64
2022/07/26 12:49:45;;;;;;;16.70;10.83;;;;;;;;;;3353580;42;20562;-63
2022/07/26 12:52:13;;;;;;;17.23;10.82;;;;;;;;;;3347432;42;20084;-63
2022/07/26 12:54:39;;;;;;;15.50;10.25;;;;;;;;;;3354735;42;20088;-61
2022/07/26 12:57:05;;;;;;;13.98;9.93;;;;;;;;;;3342762;42;20097;-64
2022/07/26 12:59:31;;;;;;;14.15;10.00;;;;;;;;;;3350155;42;20139;-64
2022/07/26 13:01:57;;;;;;;13.63;9.07;;;;;;;;;;3356322;42;20092;-63
2022/07/26 13:04:23;;;;;;;14.68;9.35;;;;;;;;;;3350643;42;20088;-63
2022/07/26 13:06:49;;;;;;;13.07;8.65;;;;;;;;;;3352094;42;20085;-63
2022/07/26 13:09:15;;;;;;;17.65;9.05;;;;;;;;;;3356224;42;20096;-66
2022/07/26 13:11:41;;;;;;;12.33;8.37;;;;;;;;;;3351507;42;20088;-64
2022/07/26 13:14:07;;;;;;;15.15;8.25;;;;;;;;;;3350597;42;20539;-63
2022/07/26 13:16:33;;;;;;;13.25;8.40;;;;;;;;;;3347832;42;20103;-63
2022/07/26 13:18:59;;;;;;;14.00;8.70;;;;;;;;;;3352692;42;20502;-63
2022/07/26 13:21:25;;;;;;;12.87;8.23;;;;;;;;;;3351703;42;20092;-62
2022/07/26 13:23:51;;;;;;;15.00;7.10;;;;;;;;;;3343559;42;20135;-63
2022/07/26 13:26:17;;;;;;;11.77;6.82;;;;;;;;;;3347087;42;184813;-64
2022/07/26 13:28:42;;;;;;;10.83;6.40;;;;;;;;;;3352781;42;20088;-63
2022/07/26 13:31:09;;;;;;;17.05;6.90;;;;;;;;;;3352446;42;20095;-63
2022/07/26 13:33:36;;;;;;;13.55;6.75;;;;;;;;;;3349493;42;20092;-64
2022/07/26 13:36:02;;;;;;;14.82;6.47;;;;;;;;;;3345288;42;20100;-62
2022/07/26 13:38:32;;;;;;;11.90;6.13;;;;;;;;;;3354808;42;20088;-62
2022/07/26 13:41:01;;;;;;;12.60;6.25;;;;;;;;;;3351030;42;20092;-66
2022/07/26 13:43:29;;;;;;;12.77;5.88;;;;;;;;;;3339949;42;20522;-66
2022/07/26 13:45:56;;;;;;;10.77;6.30;;;;;;;;;;3342994;42;20096;-63
2022/07/26 13:48:22;;;;;;;13.30;6.30;;;;;;;;;;3352619;42;20084;-65
2022/07/26 13:50:48;;;;;;;13.33;6.03;;;;;;;;;;3349893;42;20135;-62
2022/07/26 13:53:15;;;;;;;11.68;6.13;;;;;;;;;;3339991;42;20084;-62
2022/07/26 13:55:41;;;;;;;10.45;6.38;;;;;;;;;;3348107;42;20089;-62
2022/07/26 13:58:07;;;;;;;10.93;6.10;;;;;;;;;;3354032;42;20632;-61
2022/07/26 14:00:33;;;;;;;11.60;5.88;;;;;;;;;;3357762;42;20096;-64
2022/07/26 14:02:58;;;;;;;8.70;5.60;;;;;;;;;;3354864;42;20544;-61
2022/07/26 14:05:25;;;;;;;11.23;6.13;;;;;;;;;;3347212;42;20554;-62
2022/07/26 14:07:51;;;;;;;11.50;5.88;;;;;;;;;;3353861;42;20142;-61
2022/07/26 14:10:17;;;;;;;9.35;6.20;;;;;;;;;;3345018;42;20610;-63
2022/07/26 14:12:43;;;;;;;12.83;6.33;;;;;;;;;;3342801;42;20603;-63
2022/07/26 14:15:09;;;;;;;13.35;6.18;;;;;;;;;;3353548;42;20204;-63
2022/07/26 14:17:35;;;;;;;11.10;5.88;;;;;;;;;;3349967;42;20133;-64
2022/07/26 14:20:03;;;;;;;9.88;5.40;;;;;;;;;;3355348;42;20152;-61
2022/07/26 14:22:29;;;;;;;9.23;5.40;;;;;;;;;;3356580;42;20583;-63
2022/07/26 14:24:55;;;;;;;11.52;5.10;;;;;;;;;;3346863;42;20095;-63
2022/07/26 14:27:21;;;;;;;11.70;4.78;;;;;;;;;;3350266;42;20547;-61